Dalton, Texas
Current Conditions -  °F | °C
As of 7:35 AM on Friday 19 Dec 2014 (Local Time) from KOSA Reporting Station
Overcast Overcast  
Wind Chill: 40°   Ceiling: 300
Heat Index: 45°   Visibility: 4mi
Dew Point: 44°   Wind: 8mph
Humidity: 97%   Direction: 360°N
Pressure: 30.2"   Gusts: NA
Location:  33.2006°N, 94.6977°W
Report Text: KOSA 191335Z AUTO 36007KT 4SM OVC003 07/07 A3020 RMK AO1 T00700066
Loading
Personal Weather Stations






























Interactive Weather Map New forecast layout! Learn more

10-Day Weather Forecast

Advertisements
Track Severe Weather on mobile